Time;durP1;ratioP1;P1;durP2;ratioP2;P2;SDS_P1;SDS_P2;PMS_P1;PMS_P2;Temp;Humidity;BMP_temperature;BMP_pressure;BME280_temperature;BME280_humidity;BME280_pressure;Samples;Min_cycle;Max_cycle;Signal;HPM_P1;HPM_P2
2021/05/24 00:01:21;;;;;;;0.60;0.38;;;;;;;6.99;81.56;99167.41;2034002;79;21692;-69
2021/05/24 00:04:24;;;;;;;0.40;0.30;;;;;;;6.99;81.64;99172.56;2037551;79;20358;-70
2021/05/24 00:07:26;;;;;;;0.55;0.40;;;;;;;6.96;81.76;99164.81;2037855;79;20322;-70
2021/05/24 00:10:33;;;;;;;0.32;0.32;;;;;;;6.93;81.90;99163.06;2037323;79;20373;-70
2021/05/24 00:13:44;;;;;;;1.00;0.40;;;;;;;6.93;82.19;99162.22;2038396;79;20925;-69
2021/05/24 00:16:47;;;;;;;0.50;0.36;;;;;;;6.90;82.28;99151.88;2033839;77;20600;-69
2021/05/24 00:19:50;;;;;;;0.98;0.40;;;;;;;6.89;82.41;99152.72;2032542;79;20364;-70
2021/05/24 00:22:53;;;;;;;0.55;0.30;;;;;;;6.86;82.46;99144.97;2031981;79;21249;-70
2021/05/24 00:25:56;;;;;;;0.45;0.40;;;;;;;6.83;82.48;99144.97;2031881;79;21032;-70
2021/05/24 00:28:59;;;;;;;0.38;0.30;;;;;;;6.76;82.39;99144.03;2032684;79;20301;-70
2021/05/24 00:32:02;;;;;;;1.98;0.41;;;;;;;6.72;82.30;99144.00;2035021;76;21290;-70
2021/05/24 00:35:06;;;;;;;3.51;0.40;;;;;;;6.72;82.38;99147.47;2037632;79;20812;-70
2021/05/24 00:38:10;;;;;;;0.95;0.50;;;;;;;6.66;82.47;99148.28;2037542;79;20333;-70
2021/05/24 00:41:12;;;;;;;0.63;0.39;;;;;;;6.62;82.33;99145.66;2037951;79;20305;-70
2021/05/24 00:44:15;;;;;;;0.51;0.30;;;;;;;6.58;82.09;99151.66;2038272;79;20350;-70
2021/05/24 00:47:18;;;;;;;3.44;0.40;;;;;;;6.57;81.83;99140.47;2033085;77;21187;-70
2021/05/24 00:50:20;;;;;;;0.50;0.50;;;;;;;6.54;82.05;99140.44;2031711;79;21138;-70
2021/05/24 00:53:23;;;;;;;2.13;0.35;;;;;;;6.54;82.40;99140.44;2033236;79;20310;-70
2021/05/24 00:56:26;;;;;;;1.51;0.35;;;;;;;6.55;82.56;99128.41;2032615;79;20305;-70
2021/05/24 00:59:29;;;;;;;3.94;0.50;;;;;;;6.53;82.77;99122.38;2032582;79;20333;-70
2021/05/24 01:02:32;;;;;;;1.10;0.34;;;;;;;6.49;82.95;99126.66;2035892;77;20309;-70
2021/05/24 01:05:35;;;;;;;0.84;0.40;;;;;;;6.46;83.06;99118.00;2036758;79;20309;-70
2021/05/24 01:08:39;;;;;;;0.30;0.30;;;;;;;6.43;83.07;99112.84;2038202;79;20332;-70
2021/05/24 01:11:41;;;;;;;1.65;0.40;;;;;;;6.42;83.02;99104.25;2037928;79;20693;-69
2021/05/24 01:14:44;;;;;;;0.75;0.40;;;;;;;6.43;83.03;99105.09;2038651;79;20343;-71
2021/05/24 01:17:47;;;;;;;2.71;0.56;;;;;;;6.38;82.87;99101.63;2032983;77;20302;-69
2021/05/24 01:20:49;;;;;;;2.19;0.50;;;;;;;6.35;82.98;99100.75;2033533;79;20371;-70
2021/05/24 01:23:52;;;;;;;0.31;0.31;;;;;;;6.32;82.91;99095.59;2033339;79;20355;-69
2021/05/24 01:26:55;;;;;;;1.26;0.30;;;;;;;6.30;82.92;99086.97;2033535;79;20380;-70
2021/05/24 01:29:59;;;;;;;1.50;0.84;;;;;;;6.32;83.01;99087.00;2032853;79;20327;-69
2021/05/24 01:33:02;;;;;;;1.14;0.40;;;;;;;6.31;82.85;99077.53;2033023;77;20345;-69
2021/05/24 01:36:08;;;;;;;2.78;0.44;;;;;;;6.30;82.95;99078.38;2032851;79;20489;-69
2021/05/24 01:39:11;;;;;;;1.16;0.40;;;;;;;6.19;82.89;99062.81;2032887;79;20333;-69
2021/05/24 01:42:14;;;;;;;1.06;0.45;;;;;;;6.10;83.03;99069.59;2033091;79;20330;-69
2021/05/24 01:45:17;;;;;;;1.64;0.40;;;;;;;6.05;83.04;99065.28;2032042;79;20327;-69
2021/05/24 01:48:20;;;;;;;1.26;0.40;;;;;;;6.03;82.99;99059.25;2038046;79;20382;-70
2021/05/24 01:51:22;;;;;;;2.36;0.30;;;;;;;5.98;82.96;99060.94;2037744;79;20309;-69
2021/05/24 01:54:25;;;;;;;1.15;0.40;;;;;;;5.96;83.10;99052.34;2038309;79;20393;-69
2021/05/24 01:57:27;;;;;;;0.80;0.30;;;;;;;5.94;83.05;99048.88;2037662;79;21324;-70
2021/05/24 02:00:31;;;;;;;1.88;0.50;;;;;;;5.93;83.09;99044.59;2037010;77;22752;-69
2021/05/24 02:03:35;;;;;;;0.63;0.38;;;;;;;5.93;83.02;99041.16;2034389;79;20706;-69
2021/05/24 02:06:39;;;;;;;0.50;0.50;;;;;;;5.90;83.21;99051.41;2034950;79;20318;-69
2021/05/24 02:09:43;;;;;;;1.21;0.51;;;;;;;5.86;83.12;99044.47;2035029;79;20310;-70
2021/05/24 02:12:47;;;;;;;1.74;0.46;;;;;;;5.80;83.03;99042.72;2033785;79;20358;-69
2021/05/24 02:15:49;;;;;;;0.89;0.40;;;;;;;5.72;83.06;99031.44;2034222;76;22133;-70
2021/05/24 02:18:52;;;;;;;1.83;0.43;;;;;;;5.68;83.42;99033.16;2033887;79;20806;-69
2021/05/24 02:21:55;;;;;;;1.16;0.50;;;;;;;5.69;83.38;99032.28;2034599;79;20306;-70
2021/05/24 02:24:58;;;;;;;0.64;0.44;;;;;;;5.69;83.45;99034.00;2034432;79;20355;-70
2021/05/24 02:28:01;;;;;;;1.02;0.30;;;;;;;5.66;83.55;99042.56;2034185;79;21049;-70
2021/05/24 02:31:03;;;;;;;0.65;0.40;;;;;;;5.64;83.55;99036.53;2034469;79;26892;-70
2021/05/24 02:34:07;;;;;;;0.82;0.40;;;;;;;5.59;83.49;99037.38;2039677;79;20806;-69
2021/05/24 02:37:10;;;;;;;1.02;0.40;;;;;;;5.52;83.25;99032.97;2039139;79;20321;-69
2021/05/24 02:40:15;;;;;;;0.54;0.34;;;;;;;5.45;83.22;99040.66;2039591;79;20308;-70
2021/05/24 02:43:18;;;;;;;0.63;0.38;;;;;;;5.42;83.27;99034.63;2039341;79;20313;-69
2021/05/24 02:46:21;;;;;;;1.85;0.38;;;;;;;5.38;83.24;99031.13;2036469;77;21636;-69
2021/05/24 02:49:24;;;;;;;0.40;0.30;;;;;;;5.35;83.23;99027.66;2034257;79;20739;-69
2021/05/24 02:52:26;;;;;;;0.52;0.46;;;;;;;5.35;83.20;99019.94;2034220;79;20822;-70
2021/05/24 02:55:29;;;;;;;3.41;0.40;;;;;;;5.38;83.38;99017.38;2034086;79;20297;-70
2021/05/24 02:58:31;;;;;;;3.59;1.60;;;;;;;5.35;83.47;99023.38;2033775;79;20298;-69
2021/05/24 03:01:34;;;;;;;0.35;0.35;;;;;;;5.38;83.66;99023.41;2035655;76;20354;-69
2021/05/24 03:04:37;;;;;;;0.61;0.45;;;;;;;5.40;83.85;99020.88;2038616;79;20734;-69
2021/05/24 03:07:40;;;;;;;0.80;0.30;;;;;;;5.37;83.75;99013.94;2038520;79;20316;-69
2021/05/24 03:10:43;;;;;;;0.45;0.30;;;;;;;5.34;83.67;99019.06;2038107;79;20360;-70
2021/05/24 03:13:46;;;;;;;0.69;0.40;;;;;;;5.32;83.62;99009.63;2037621;79;20321;-69
2021/05/24 03:16:48;;;;;;;1.74;0.39;;;;;;;5.28;83.40;99005.28;2033293;77;20911;-70
2021/05/24 03:19:51;;;;;;;0.89;0.49;;;;;;;5.21;83.04;99006.94;2033181;79;20326;-70
2021/05/24 03:22:54;;;;;;;1.56;0.40;;;;;;;5.18;82.97;99000.88;2032805;79;20318;-70
2021/05/24 03:25:56;;;;;;;0.59;0.38;;;;;;;5.15;83.20;99002.56;2032685;79;20383;-69
2021/05/24 03:28:59;;;;;;;0.40;0.40;;;;;;;5.13;83.42;99009.41;2033649;79;20329;-70
2021/05/24 03:32:01;;;;;;;1.15;0.50;;;;;;;5.06;83.29;98999.06;2035288;76;26012;-70
2021/05/24 03:35:06;;;;;;;0.86;0.57;;;;;;;5.02;83.38;99004.97;2038092;79;20394;-69
2021/05/24 03:38:09;;;;;;;1.45;0.34;;;;;;;5.01;83.24;98986.13;2038297;79;20893;-70
2021/05/24 03:41:12;;;;;;;1.99;0.36;;;;;;;5.00;83.31;98992.09;2037691;79;20332;-70
2021/05/24 03:44:15;;;;;;;2.13;0.55;;;;;;;4.99;83.44;98982.66;2038132;79;20292;-69
2021/05/24 03:47:18;;;;;;;1.31;0.40;;;;;;;5.00;83.56;99004.09;2032528;77;20865;-70
2021/05/24 03:50:22;;;;;;;0.52;0.40;;;;;;;5.03;83.73;99004.16;2032799;79;20358;-70
2021/05/24 03:53:24;;;;;;;0.82;0.30;;;;;;;5.00;83.71;99002.41;2032787;79;21018;-70
2021/05/24 03:56:27;;;;;;;1.45;0.39;;;;;;;4.99;84.40;99005.81;2032222;79;20877;-70
2021/05/24 03:59:29;;;;;;;0.60;0.36;;;;;;;5.03;84.45;98988.72;2032314;79;20357;-70
2021/05/24 04:02:32;;;;;;;1.39;0.40;;;;;;;5.04;84.50;98993.03;2036252;77;20552;-69
2021/05/24 04:05:37;;;;;;;1.95;0.50;;;;;;;5.05;84.56;98989.59;2037350;79;20346;-70
2021/05/24 04:08:44;;;;;;;3.39;0.34;;;;;;;5.07;84.45;98986.19;2037613;79;20322;-69
2021/05/24 04:11:47;;;;;;;0.66;0.40;;;;;;;5.16;84.75;98990.56;2037626;79;20755;-70
2021/05/24 04:14:50;;;;;;;1.94;0.46;;;;;;;5.24;84.89;98988.94;2037866;79;21280;-70
2021/05/24 04:17:57;;;;;;;1.49;0.40;;;;;;;5.36;84.89;98996.78;2031857;78;20766;-70
2021/05/24 04:21:02;;;;;;;0.38;0.38;;;;;;;5.47;85.01;98994.31;2032066;79;20313;-69
2021/05/24 04:24:06;;;;;;;0.68;0.38;;;;;;;5.60;84.97;98987.59;2032347;79;20326;-69
2021/05/24 04:27:09;;;;;;;3.01;0.43;;;;;;;5.70;84.98;98987.66;2032222;79;20298;-69
2021/05/24 04:30:14;;;;;;;0.66;0.46;;;;;;;5.78;85.32;98989.44;2034937;79;20318;-70
2021/05/24 04:33:17;;;;;;;1.01;0.30;;;;;;;5.88;85.34;98994.66;2032652;77;25933;-69
2021/05/24 04:36:19;;;;;;;1.70;0.50;;;;;;;6.02;85.47;98993.09;2032936;79;20435;-69
2021/05/24 04:39:22;;;;;;;0.40;0.40;;;;;;;6.11;85.58;98983.72;2032946;79;20318;-69
2021/05/24 04:42:25;;;;;;;0.38;0.36;;;;;;;6.20;85.46;98976.91;2032215;79;20309;-69
2021/05/24 04:45:27;;;;;;;0.66;0.38;;;;;;;6.28;85.53;98984.66;2032436;76;20414;-70
2021/05/24 04:48:30;;;;;;;0.88;0.40;;;;;;;6.38;85.70;98978.72;2037429;79;20308;-69
2021/05/24 04:51:32;;;;;;;1.77;0.47;;;;;;;6.51;86.18;98983.09;2037486;79;20320;-69
2021/05/24 04:54:35;;;;;;;1.26;0.40;;;;;;;6.66;86.28;98972.88;2038681;79;20358;-69
2021/05/24 04:57:37;;;;;;;0.57;0.40;;;;;;;6.87;86.25;98961.75;2037437;79;20324;-69
2021/05/24 05:00:41;;;;;;;1.40;0.60;;;;;;;7.06;85.42;98966.97;2035853;79;20934;-69
2021/05/24 05:03:43;;;;;;;2.29;0.50;;;;;;;7.16;85.41;98966.13;2031405;79;20882;-69
2021/05/24 05:06:46;;;;;;;0.40;0.40;;;;;;;7.20;85.20;98962.72;2032520;79;20355;-69
2021/05/24 05:09:49;;;;;;;0.49;0.40;;;;;;;7.24;84.96;98956.69;2031687;79;20385;-69
2021/05/24 05:12:51;;;;;;;1.44;0.40;;;;;;;7.33;84.75;98959.28;2032534;79;20314;-69
2021/05/24 05:15:54;;;;;;;0.64;0.40;;;;;;;7.48;84.20;98964.47;2032804;76;20415;-69
2021/05/24 05:18:57;;;;;;;0.94;0.49;;;;;;;7.55;84.58;98967.94;2037903;79;20886;-69
2021/05/24 05:21:59;;;;;;;1.23;0.32;;;;;;;7.86;84.04;98961.88;2038223;79;20822;-69
2021/05/24 05:25:03;;;;;;;1.45;0.40;;;;;;;8.14;83.82;98957.56;2036928;79;20169;-70
2021/05/24 05:28:07;;;;;;;0.55;0.50;;;;;;;8.40;83.33;98956.66;2037386;79;20550;-70
2021/05/24 05:31:11;;;;;;;0.96;0.40;;;;;;;8.65;82.76;98944.53;2034667;77;20442;-70
2021/05/24 05:34:13;;;;;;;1.92;0.32;;;;;;;8.93;81.60;98948.69;2031747;79;20190;-70
2021/05/24 05:37:18;;;;;;;0.40;0.40;;;;;;;9.20;80.55;98947.69;2031874;79;20177;-70
2021/05/24 05:40:21;;;;;;;0.47;0.32;;;;;;;9.31;79.71;98947.59;2031705;79;20702;-69
2021/05/24 05:43:23;;;;;;;0.90;0.45;;;;;;;10.09;77.70;98940.06;2032628;79;20191;-69
2021/05/24 05:46:26;;;;;;;1.40;0.30;;;;;;;10.88;75.02;98949.59;2031011;78;31861;-69
2021/05/24 05:49:28;;;;;;;2.86;0.45;;;;;;;11.09;73.48;98939.78;2033267;79;20231;-69
2021/05/24 05:52:34;;;;;;;2.11;0.44;;;;;;;11.16;72.66;98939.69;2032389;79;20162;-69
2021/05/24 05:55:37;;;;;;;0.84;0.31;;;;;;;11.15;71.87;98934.53;2032382;79;20199;-69
2021/05/24 05:58:39;;;;;;;0.43;0.36;;;;;;;11.07;70.36;98929.41;2033698;79;20166;-69
2021/05/24 06:01:42;;;;;;;2.53;0.40;;;;;;;10.99;69.63;98927.81;2035127;79;21424;-69
2021/05/24 06:04:44;;;;;;;1.34;0.32;;;;;;;10.95;69.84;98933.91;2038099;79;21043;-69
2021/05/24 06:07:47;;;;;;;2.13;0.40;;;;;;;10.94;69.16;98939.97;2037875;79;20149;-70
2021/05/24 06:10:50;;;;;;;1.81;0.30;;;;;;;11.00;68.77;98937.31;2037769;79;20185;-70
2021/05/24 06:13:52;;;;;;;4.32;0.60;;;;;;;10.99;69.06;98946.00;2038436;79;20199;-70
2021/05/24 06:16:55;;;;;;;1.00;0.44;;;;;;;10.95;69.74;98940.00;2033350;77;21275;-69
2021/05/24 06:19:58;;;;;;;1.44;0.43;;;;;;;10.98;70.27;98923.50;2033230;79;20187;-69
2021/05/24 06:23:00;;;;;;;0.56;0.28;;;;;;;11.02;70.00;98923.44;2032456;79;20186;-70
2021/05/24 06:26:04;;;;;;;0.91;0.50;;;;;;;11.08;69.49;98932.88;2033130;79;20237;-69
2021/05/24 06:29:07;;;;;;;3.79;0.50;;;;;;;11.03;70.11;98925.16;2032705;79;20173;-70
2021/05/24 06:32:09;;;;;;;0.68;0.39;;;;;;;11.08;71.02;98918.13;2036025;76;20680;-69
2021/05/24 06:35:12;;;;;;;2.08;0.41;;;;;;;11.10;70.97;98921.56;2037957;79;20165;-69
2021/05/24 06:38:14;;;;;;;1.91;0.45;;;;;;;11.22;71.40;98917.94;2037696;79;20446;-70
2021/05/24 06:41:17;;;;;;;2.45;0.30;;;;;;;11.40;70.54;98919.41;2038524;79;20190;-70
2021/05/24 06:44:20;;;;;;;0.40;0.30;;;;;;;11.59;70.04;98923.44;2037773;79;20579;-70
2021/05/24 06:47:26;;;;;;;0.63;0.40;;;;;;;11.86;68.74;98929.13;2033582;77;20227;-70
2021/05/24 06:50:29;;;;;;;0.99;0.41;;;;;;;12.08;68.51;98918.31;2032911;79;20768;-68
2021/05/24 06:53:31;;;;;;;1.86;0.36;;;;;;;12.25;67.55;98924.94;2032906;79;21041;-70
2021/05/24 06:56:36;;;;;;;0.64;0.41;;;;;;;12.39;67.91;98917.75;2032860;79;20649;-71
2021/05/24 06:59:38;;;;;;;1.84;0.43;;;;;;;12.51;67.87;98911.41;2032752;79;20195;-71
2021/05/24 07:02:42;;;;;;;2.01;0.30;;;;;;;12.69;66.59;98914.50;2036465;77;20209;-70
2021/05/24 07:05:46;;;;;;;1.96;0.40;;;;;;;12.97;65.96;98921.75;2037226;79;20628;-70
2021/05/24 07:08:48;;;;;;;1.21;0.31;;;;;;;13.15;63.71;98923.94;2038388;79;20550;-71
2021/05/24 07:11:51;;;;;;;1.80;0.43;;;;;;;13.47;61.31;98933.69;2037681;79;20194;-70
2021/05/24 07:14:54;;;;;;;1.59;0.30;;;;;;;13.52;60.97;98928.34;2037951;79;20252;-71
2021/05/24 07:17:57;;;;;;;1.56;0.34;;;;;;;13.61;59.50;98923.75;2031911;77;20546;-71
2021/05/24 07:20:59;;;;;;;1.06;0.40;;;;;;;13.73;59.22;98930.44;2032867;79;20173;-71
2021/05/24 07:24:02;;;;;;;0.84;0.40;;;;;;;13.83;60.44;98934.56;2032382;79;20260;-71
2021/05/24 07:27:25;;;;;;;1.39;0.41;;;;;;;13.88;58.57;98932.66;2032787;79;20311;-69
2021/05/24 07:30:28;;;;;;;0.60;0.31;;;;;;;13.99;58.73;98929.78;2032100;79;22136;-70
2021/05/24 07:33:30;;;;;;;1.40;0.38;;;;;;;14.12;57.64;98923.34;2037823;79;20209;-74
2021/05/24 07:36:33;;;;;;;1.63;0.30;;;;;;;14.41;57.64;98927.81;2037889;79;20722;-75
2021/05/24 07:39:36;;;;;;;2.94;0.40;;;;;;;14.73;57.32;98926.94;2037845;79;20195;-74
2021/05/24 07:42:38;;;;;;;1.67;0.43;;;;;;;14.93;56.05;98920.28;2038106;79;20214;-72
2021/05/24 07:45:41;;;;;;;1.86;0.30;;;;;;;15.14;56.35;98917.00;2036591;77;20264;-75
2021/05/24 07:48:44;;;;;;;1.05;0.40;;;;;;;15.37;55.95;98913.69;2033444;79;20597;-74
2021/05/24 07:51:47;;;;;;;1.01;0.30;;;;;;;15.55;54.92;98912.22;2032229;79;20191;-75
2021/05/24 07:54:50;;;;;;;0.60;0.30;;;;;;;15.59;53.80;98916.50;2033739;79;20185;-74
2021/05/24 07:57:52;;;;;;;1.04;0.50;;;;;;;15.88;53.23;98913.78;2032645;79;20746;-74
2021/05/24 08:00:55;;;;;;;1.95;0.34;;;;;;;16.16;52.67;98907.63;2033563;76;21081;-74
2021/05/24 08:03:57;;;;;;;1.30;0.30;;;;;;;16.51;51.68;98898.47;2038650;79;20185;-73
2021/05/24 08:07:00;;;;;;;0.51;0.40;;;;;;;16.84;51.26;98899.03;2038259;79;20198;-75
2021/05/24 08:10:05;;;;;;;2.45;0.30;;;;;;;17.30;48.79;98887.63;2037892;79;20234;-75
2021/05/24 08:13:07;;;;;;;1.08;0.30;;;;;;;17.45;47.55;98879.16;2038399;79;20761;-75
2021/05/24 08:16:14;;;;;;;2.01;0.40;;;;;;;17.68;46.28;98888.72;2035966;77;25075;-75
2021/05/24 08:19:17;;;;;;;1.44;0.40;;;;;;;17.77;46.94;98890.09;2032437;79;20856;-74
2021/05/24 08:22:19;;;;;;;2.06;0.50;;;;;;;18.02;46.51;98882.91;2032641;79;20165;-75
2021/05/24 08:25:22;;;;;;;0.90;0.40;;;;;;;18.29;45.62;98885.25;2033414;79;20510;-75
2021/05/24 08:28:24;;;;;;;1.67;0.40;;;;;;;18.54;45.49;98891.16;2035450;79;20161;-75
2021/05/24 08:31:27;;;;;;;2.13;0.44;;;;;;;18.72;44.83;98884.25;2035063;76;25856;-75
2021/05/24 08:34:30;;;;;;;1.63;0.30;;;;;;;18.76;43.00;98866.53;2038978;79;20173;-75
2021/05/24 08:37:33;;;;;;;1.06;0.35;;;;;;;18.77;43.27;98853.31;2038084;79;20190;-75
2021/05/24 08:40:35;;;;;;;3.20;0.46;;;;;;;19.12;43.79;98854.28;2038338;79;20200;-75
2021/05/24 08:43:39;;;;;;;3.10;0.40;;;;;;;19.41;43.45;98838.88;2038432;79;20223;-76
2021/05/24 08:46:43;;;;;;;3.33;0.40;;;;;;;19.53;41.45;98840.88;2034988;77;21163;-75
2021/05/24 08:50:07;;;;;;;0.79;0.30;;;;;;;19.72;43.49;98840.84;2033639;79;20304;-75
2021/05/24 08:53:10;;;;;;;1.69;0.50;;;;;;;19.89;41.07;98833.78;2033169;79;20701;-75
2021/05/24 08:56:13;;;;;;;0.65;0.30;;;;;;;20.09;40.78;98827.50;2032669;79;20622;-76
2021/05/24 08:59:16;;;;;;;3.71;0.39;;;;;;;20.30;41.09;98829.97;2036428;79;20277;-75
2021/05/24 09:02:19;;;;;;;1.36;0.30;;;;;;;20.59;40.68;98826.63;2037176;77;26193;-75
2021/05/24 09:05:28;;;;;;;1.84;0.36;;;;;;;20.77;40.46;98814.22;2038556;79;20194;-75
2021/05/24 09:08:35;;;;;;;1.77;0.49;;;;;;;20.73;36.94;98805.63;2038387;79;20149;-75
2021/05/24 09:11:38;;;;;;;1.20;0.44;;;;;;;20.36;37.88;98809.38;2038196;79;20165;-75
2021/05/24 09:14:41;;;;;;;1.13;0.40;;;;;;;20.22;38.29;98806.63;2038284;79;20348;-75
2021/05/24 09:17:52;;;;;;;1.58;0.31;;;;;;;20.28;37.59;98798.38;2033128;76;22639;-75
2021/05/24 09:20:55;;;;;;;2.03;0.40;;;;;;;20.41;37.13;98802.09;2033058;79;20208;-76
2021/05/24 09:24:28;;;;;;;1.36;0.28;;;;;;;20.38;38.46;98804.03;2033571;79;20181;-75
2021/05/24 09:27:35;;;;;;;1.25;0.30;;;;;;;20.37;37.70;98794.41;2033246;79;20177;-76
2021/05/24 09:30:52;;;;;;;3.33;0.35;;;;;;;20.38;35.30;98807.50;2032980;77;34204;-75
2021/05/24 09:33:58;;;;;;;1.17;0.40;;;;;;;19.99;34.93;98791.16;2033690;79;20169;-76
2021/05/24 09:37:01;;;;;;;1.38;0.31;;;;;;;20.05;36.04;98788.19;2037890;79;20193;-76
2021/05/24 09:40:20;;;;;;;2.35;0.40;;;;;;;20.42;34.70;98789.75;2037267;79;20193;-75
2021/05/24 09:43:37;;;;;;;0.68;0.30;;;;;;;19.85;32.63;98802.41;2033039;79;20295;-74
2021/05/24 09:46:40;;;;;;;1.94;0.30;;;;;;;19.58;34.96;98781.00;2035914;76;20501;-74
2021/05/24 09:49:44;;;;;;;1.30;0.28;;;;;;;19.44;35.21;98792.19;2038561;79;20169;-74
2021/05/24 09:52:48;;;;;;;2.05;0.43;;;;;;;19.13;35.54;98791.97;2035751;79;20194;-73
2021/05/24 09:55:51;;;;;;;1.25;0.32;;;;;;;18.96;36.95;98780.50;2038660;79;20237;-74
2021/05/24 09:59:01;;;;;;;0.94;0.31;;;;;;;18.81;38.09;98780.38;2035654;79;20185;-74
2021/05/24 10:02:06;;;;;;;0.54;0.30;;;;;;;18.88;37.42;98779.16;2034788;77;27710;-73
2021/05/24 10:05:10;;;;;;;0.60;0.20;;;;;;;18.99;38.07;98772.44;2033064;79;20170;-74
2021/05/24 10:08:13;;;;;;;2.04;0.40;;;;;;;18.99;37.42;98782.97;2033765;79;20186;-74
2021/05/24 10:11:16;;;;;;;1.21;0.20;;;;;;;19.04;37.74;98780.13;2032480;79;20633;-74
2021/05/24 10:14:21;;;;;;;1.08;0.40;;;;;;;19.17;37.77;98775.94;2035478;79;20222;-74
2021/05/24 10:17:25;;;;;;;2.36;0.50;;;;;;;18.96;37.92;98764.69;2036287;76;25922;-74
2021/05/24 10:20:30;;;;;;;2.00;0.89;;;;;;;18.92;37.72;98786.84;2038390;79;20173;-74
2021/05/24 10:23:33;;;;;;;1.48;0.63;;;;;;;18.79;38.42;98782.22;2038041;79;20190;-73
2021/05/24 10:26:38;;;;;;;2.01;0.40;;;;;;;18.72;40.23;98760.63;2038434;79;20690;-74
2021/05/24 10:29:43;;;;;;;2.74;0.40;;;;;;;18.62;41.38;98764.56;2038355;79;20306;-73
2021/05/24 10:32:57;;;;;;;1.17;0.32;;;;;;;18.57;42.38;98772.69;2032289;77;21064;-74
2021/05/24 10:36:15;;;;;;;1.29;0.40;;;;;;;18.56;43.73;98768.34;2032802;79;20254;-74
2021/05/24 10:39:23;;;;;;;3.01;0.50;;;;;;;18.56;43.63;98763.09;2033100;79;20207;-74
2021/05/24 10:42:41;;;;;;;2.75;0.40;;;;;;;18.43;44.26;98765.44;2032362;79;20606;-73
2021/05/24 10:45:45;;;;;;;1.08;0.38;;;;;;;18.37;45.63;98778.88;2031897;77;20192;-73
2021/05/24 10:48:54;;;;;;;5.10;0.43;;;;;;;18.20;45.21;98778.78;2032702;79;20161;-73
2021/05/24 10:52:05;;;;;;;3.60;0.43;;;;;;;18.06;45.30;98799.56;2033165;79;20597;-72
2021/05/24 10:55:25;;;;;;;0.76;0.36;;;;;;;17.82;45.23;98785.75;2033094;79;20185;-73
2021/05/24 10:58:40;;;;;;;6.24;0.43;;;;;;;17.67;47.19;98787.22;2032403;79;20217;-75
2021/05/24 11:01:58;;;;;;;1.41;0.35;;;;;;;17.45;46.28;98789.06;2034966;76;22123;-74
2021/05/24 11:05:31;;;;;;;2.60;0.59;;;;;;;17.14;47.00;98797.31;2038806;79;20237;-73
2021/05/24 11:08:36;;;;;;;1.77;0.57;;;;;;;16.83;47.49;98803.78;2037755;79;20296;-74
2021/05/24 11:11:39;;;;;;;1.66;0.31;;;;;;;16.42;48.13;98799.25;2037438;79;20636;-73
2021/05/24 11:15:30;;;;;;;0.65;0.30;;;;;;;16.22;49.50;98810.47;2037766;79;20165;-74
2021/05/24 11:18:39;;;;;;;4.29;0.41;;;;;;;16.09;50.52;98809.19;2030696;79;20182;-75
2021/05/24 11:21:56;;;;;;;1.59;0.46;;;;;;;15.79;52.01;98805.88;2033711;79;20699;-75
2021/05/24 11:28:50;;;;;;;15.15;0.57;;;;;;;15.32;53.41;98809.19;2032224;79;21063;-74
2021/05/24 11:31:56;;;;;;;1.70;0.40;;;;;;;15.14;55.43;98817.63;2031892;79;21212;-74
2021/05/24 11:35:25;;;;;;;1.17;0.30;;;;;;;14.90;56.63;98814.03;2032251;79;20732;-73
2021/05/24 11:38:28;;;;;;;1.84;0.30;;;;;;;14.65;58.60;98818.28;2032554;79;20181;-75
2021/05/24 11:41:33;;;;;;;2.31;0.38;;;;;;;14.45;59.40;98822.34;2031638;79;20452;-75
2021/05/24 11:44:41;;;;;;;3.56;0.96;;;;;;;14.23;60.39;98820.38;2031990;79;20188;-74
2021/05/24 11:47:43;;;;;;;1.19;0.40;;;;;;;14.06;61.19;98826.06;2036256;76;20227;-74
2021/05/24 11:50:50;;;;;;;2.72;1.20;;;;;;;13.93;61.51;98828.16;2037535;79;20720;-75
2021/05/24 11:54:02;;;;;;;0.81;0.36;;;;;;;13.80;62.26;98832.81;2038139;79;20549;-74
2021/05/24 11:57:09;;;;;;;2.17;0.50;;;;;;;13.73;62.03;98828.69;2036851;79;20965;-74
2021/05/24 12:00:15;;;;;;;1.42;0.40;;;;;;;13.63;62.38;98824.59;2036644;79;20173;-74
2021/05/24 12:03:18;;;;;;;1.41;0.30;;;;;;;13.59;63.08;98826.41;2032778;77;24410;-74
2021/05/24 12:06:22;;;;;;;4.25;0.41;;;;;;;13.62;63.94;98828.09;2032598;79;20772;-75
2021/05/24 12:09:44;;;;;;;1.46;0.57;;;;;;;13.58;65.61;98827.31;2032691;79;20170;-75
2021/05/24 12:12:46;;;;;;;1.15;0.61;;;;;;;13.64;66.57;98841.09;2032013;79;20181;-75
2021/05/24 12:15:49;;;;;;;1.30;0.36;;;;;;;13.66;66.38;98836.72;2032570;79;24050;-75
2021/05/24 12:18:57;;;;;;;1.01;0.32;;;;;;;13.64;67.78;98841.09;2038049;79;20849;-75
2021/05/24 12:22:04;;;;;;;2.31;0.44;;;;;;;13.59;68.29;98846.44;2037958;79;20206;-75
2021/05/24 12:25:09;;;;;;;0.80;0.40;;;;;;;13.52;70.41;98844.88;2036952;79;20253;-75
2021/05/24 12:28:11;;;;;;;2.85;0.40;;;;;;;13.51;71.30;98840.56;2037258;79;20201;-75
2021/05/24 12:31:14;;;;;;;2.56;0.40;;;;;;;13.46;71.69;98850.22;2036430;77;20529;-75
2021/05/24 12:34:20;;;;;;;2.09;0.40;;;;;;;13.36;72.43;98854.84;2037012;79;20193;-75
2021/05/24 12:37:23;;;;;;;3.35;0.49;;;;;;;13.32;73.71;98855.81;2037664;79;20165;-76
2021/05/24 12:40:26;;;;;;;1.16;0.94;;;;;;;13.21;73.64;98853.44;2037589;79;20269;-76
2021/05/24 12:43:30;;;;;;;3.00;0.45;;;;;;;13.12;74.71;98864.06;2036749;79;20185;-78
2021/05/24 12:46:40;;;;;;;1.29;0.34;;;;;;;13.03;74.57;98864.28;2034047;77;58058;-77
2021/05/24 12:49:46;;;;;;;1.80;0.40;;;;;;;12.99;74.80;98865.25;2032935;79;20227;-77
2021/05/24 12:52:48;;;;;;;5.88;2.46;;;;;;;12.96;74.90;98862.72;2032286;79;20735;-77
2021/05/24 12:55:53;;;;;;;1.64;0.54;;;;;;;12.89;76.08;98866.31;2032835;79;20239;-77
2021/05/24 12:59:01;;;;;;;1.91;0.43;;;;;;;12.90;77.69;98870.63;2032133;79;20643;-78
2021/05/24 13:02:04;;;;;;;2.86;0.41;;;;;;;12.93;77.50;98858.44;2034967;77;20252;-77
2021/05/24 13:05:17;;;;;;;1.91;0.50;;;;;;;13.01;78.74;98864.31;2038221;79;20217;-78
2021/05/24 13:08:20;;;;;;;1.91;0.43;;;;;;;13.06;79.16;98858.97;2038268;79;20206;-76
2021/05/24 13:11:24;;;;;;;1.86;0.60;;;;;;;13.16;79.77;98863.09;2038446;79;20220;-78
2021/05/24 13:14:41;;;;;;;2.10;0.61;;;;;;;13.21;79.19;98863.88;2038678;79;20165;-77
2021/05/24 13:18:00;;;;;;;2.78;1.02;;;;;;;13.21;79.32;98863.03;2032726;77;20169;-78
2021/05/24 13:21:53;;;;;;;2.76;0.60;;;;;;;13.27;79.95;98857.66;2033600;79;20181;-77
2021/05/24 13:31:04;;;;;;;1.92;0.59;;;;;;;13.29;77.57;98851.53;2032518;78;20178;-76
2021/05/24 13:34:08;;;;;;;1.76;0.46;;;;;;;13.27;77.87;98847.22;2033163;79;20676;-75
2021/05/24 13:37:11;;;;;;;2.04;0.60;;;;;;;13.30;77.85;98844.56;2032529;79;20304;-77
2021/05/24 13:40:16;;;;;;;1.05;0.41;;;;;;;13.31;78.19;98851.50;2033748;79;20611;-77
2021/05/24 13:43:19;;;;;;;2.03;0.50;;;;;;;13.25;77.70;98846.41;2033143;79;20181;-77
2021/05/24 13:46:21;;;;;;;1.65;0.60;;;;;;;13.28;77.92;98849.81;2035404;76;21570;-77
2021/05/24 13:49:25;;;;;;;3.56;0.50;;;;;;;13.27;78.41;98839.41;2038747;79;21067;-77
2021/05/24 13:52:28;;;;;;;1.35;0.40;;;;;;;13.29;78.39;98832.44;2038150;79;20680;-77
2021/05/24 13:55:31;;;;;;;5.31;0.69;;;;;;;13.35;78.02;98829.66;2036502;79;20593;-75
2021/05/24 13:58:34;;;;;;;1.56;0.43;;;;;;;13.35;76.42;98832.25;2038103;79;20279;-76
2021/05/24 14:01:38;;;;;;;1.35;0.40;;;;;;;13.23;76.20;98838.63;2034305;77;20173;-75
2021/05/24 14:04:40;;;;;;;2.20;0.50;;;;;;;13.21;76.34;98840.41;2032872;79;20712;-75
2021/05/24 14:07:43;;;;;;;0.70;0.40;;;;;;;13.27;76.18;98829.81;2032088;79;20655;-76
2021/05/24 14:10:46;;;;;;;1.58;0.50;;;;;;;13.27;76.83;98831.56;2032732;79;20756;-77
2021/05/24 14:13:48;;;;;;;0.96;0.40;;;;;;;13.27;76.60;98828.97;2033264;79;20178;-77
2021/05/24 14:16:51;;;;;;;1.74;0.44;;;;;;;13.26;76.69;98817.69;2034578;77;22006;-76
2021/05/24 14:19:54;;;;;;;2.24;0.61;;;;;;;13.20;75.90;98817.00;2037865;79;20228;-76
2021/05/24 14:22:56;;;;;;;1.21;0.45;;;;;;;13.07;76.68;98813.78;2037201;79;20173;-75
2021/05/24 14:25:59;;;;;;;0.82;0.50;;;;;;;13.05;77.48;98810.34;2038136;79;20372;-76
2021/05/24 14:29:02;;;;;;;2.58;0.40;;;;;;;12.96;76.63;98801.03;2038029;79;20503;-76
2021/05/24 14:32:05;;;;;;;0.85;0.40;;;;;;;12.96;76.71;98805.38;2034103;77;20177;-76
2021/05/24 14:35:08;;;;;;;1.27;0.30;;;;;;;12.95;77.54;98801.06;2032071;79;20174;-76
2021/05/24 14:38:10;;;;;;;0.63;0.35;;;;;;;12.95;78.23;98801.06;2032867;79;20194;-76
2021/05/24 14:41:13;;;;;;;1.35;0.40;;;;;;;12.99;78.50;98805.28;2032181;79;20174;-77
2021/05/24 14:44:15;;;;;;;0.63;0.32;;;;;;;13.08;78.58;98806.81;2032332;79;20645;-76